Time;durP1;ratioP1;P1;durP2;ratioP2;P2;SDS_P1;SDS_P2;PMS_P1;PMS_P2;Temp;Humidity;BMP_temperature;BMP_pressure;BME280_temperature;BME280_humidity;BME280_pressure;Samples;Min_cycle;Max_cycle;Signal;HPM_P1;HPM_P2
2021/06/03 00:04:14;;;;;;;3.47;3.17;;;19.80;58.40;;;;;;10453093;28;20632;-78
2021/06/03 00:09:16;;;;;;;4.00;3.80;;;19.80;59.00;;;;;;10461552;28;20291;-80
2021/06/03 00:14:20;;;;;;;4.40;3.47;;;19.80;59.30;;;;;;10411105;28;20301;-80
2021/06/03 00:19:22;;;;;;;3.50;3.30;;;19.80;59.40;;;;;;10448275;28;20301;-80
2021/06/03 00:24:23;;;;;;;4.07;3.77;;;19.70;59.70;;;;;;10447018;28;20213;-80
2021/06/03 00:29:26;;;;;;;4.00;3.60;;;19.70;59.60;;;;;;10433251;28;20629;-80
2021/06/03 00:34:28;;;;;;;4.67;4.27;;;19.60;59.90;;;;;;10441355;28;20282;-79
2021/06/03 00:39:30;;;;;;;4.37;3.57;;;19.50;59.90;;;;;;10429263;28;20248;-80
2021/06/03 00:44:33;;;;;;;4.20;3.87;;;19.40;60.30;;;;;;10426537;28;20248;-80
2021/06/03 00:49:34;;;;;;;4.20;3.90;;;19.40;60.40;;;;;;10439249;28;20202;-80
2021/06/03 00:54:36;;;;;;;4.33;3.93;;;19.30;61.00;;;;;;10426441;28;20384;-79
2021/06/03 00:59:39;;;;;;;4.40;4.00;;;19.20;61.40;;;;;;10437704;28;20304;-79
2021/06/03 01:04:41;;;;;;;4.37;4.07;;;19.10;61.60;;;;;;10446079;28;20566;-80
2021/06/03 01:09:50;;;;;;;4.90;4.50;;;19.00;61.80;;;;;;10453124;28;20196;-80
2021/06/03 01:14:59;;;;;;;4.37;4.07;;;18.90;62.60;;;;;;10436100;28;20333;-80
2021/06/03 01:20:02;;;;;;;4.80;4.00;;;18.90;61.60;;;;;;10430082;28;20585;-80
2021/06/03 01:25:07;;;;;;;4.70;4.30;;;18.80;61.50;;;;;;10454565;28;20225;-80
2021/06/03 01:30:14;;;;;;;4.70;4.40;;;18.80;62.20;;;;;;10441795;28;20235;-80
2021/06/03 01:35:19;;;;;;;4.47;4.17;;;18.70;61.50;;;;;;10440656;28;20227;-80
2021/06/03 01:40:26;;;;;;;4.47;4.17;;;18.60;62.10;;;;;;10441579;28;20225;-80
2021/06/03 01:45:29;;;;;;;4.43;4.13;;;18.60;61.40;;;;;;10441444;28;20263;-80
2021/06/03 01:50:33;;;;;;;4.57;4.27;;;18.50;62.60;;;;;;10460343;28;20216;-80
2021/06/03 01:55:37;;;;;;;4.30;3.90;;;18.50;62.40;;;;;;10439716;28;20303;-80
2021/06/03 02:00:40;;;;;;;5.37;4.87;;;18.50;62.90;;;;;;10459679;28;20312;-79
2021/06/03 02:05:44;;;;;;;4.67;4.20;;;18.40;63.50;;;;;;10440912;28;20223;-80
2021/06/03 02:10:47;;;;;;;4.80;4.30;;;18.30;63.70;;;;;;10441510;28;20307;-79
2021/06/03 02:15:57;;;;;;;4.50;4.20;;;18.30;64.10;;;;;;10461320;28;20741;-80
2021/06/03 02:21:01;;;;;;;4.73;4.30;;;18.30;65.70;;;;;;10435629;28;20220;-80
2021/06/03 02:26:05;;;;;;;5.23;4.20;;;18.30;66.50;;;;;;10459719;28;20588;-79
2021/06/03 02:31:11;;;;;;;4.97;4.57;;;18.30;67.10;;;;;;10443763;28;20228;-80
2021/06/03 02:36:14;;;;;;;5.17;4.13;;;18.30;67.90;;;;;;10442339;28;20212;-79
2021/06/03 02:41:19;;;;;;;4.77;4.37;;;18.30;68.30;;;;;;10435588;28;20248;-80
2021/06/03 02:46:23;;;;;;;4.83;4.43;;;18.40;68.30;;;;;;10443301;28;20626;-80
2021/06/03 02:51:28;;;;;;;5.07;4.67;;;18.50;68.50;;;;;;10436147;28;20259;-80
2021/06/03 02:56:32;;;;;;;4.97;4.57;;;18.60;68.80;;;;;;10422403;28;20225;-78
2021/06/03 03:01:34;;;;;;;4.63;4.30;;;18.60;69.20;;;;;;10469992;28;20239;-81
2021/06/03 03:06:36;;;;;;;4.80;4.50;;;18.60;69.30;;;;;;10466240;28;20197;-80
2021/06/03 03:11:39;;;;;;;4.83;4.20;;;18.70;70.00;;;;;;10463873;28;20237;-80
2021/06/03 03:16:44;;;;;;;4.70;4.37;;;18.70;70.80;;;;;;10466499;28;20564;-80
2021/06/03 03:21:46;;;;;;;4.77;4.37;;;18.70;70.60;;;;;;10448267;28;20221;-80
2021/06/03 03:26:50;;;;;;;4.50;4.20;;;18.80;71.30;;;;;;10457812;28;20237;-80
2021/06/03 03:31:52;;;;;;;4.70;4.20;;;18.80;71.60;;;;;;10446709;28;20217;-79
2021/06/03 03:36:54;;;;;;;5.00;4.50;;;18.80;71.00;;;;;;10434915;28;20304;-77
2021/06/03 03:41:57;;;;;;;4.30;4.00;;;18.90;71.00;;;;;;10458297;28;20741;-77
2021/06/03 03:46:59;;;;;;;4.37;4.00;;;18.90;71.00;;;;;;10458345;28;20200;-78
2021/06/03 03:52:03;;;;;;;5.40;5.00;;;18.90;71.10;;;;;;10440132;28;20217;-78
2021/06/03 03:57:08;;;;;;;5.13;4.30;;;18.90;71.30;;;;;;10428795;28;20582;-78
2021/06/03 04:02:10;;;;;;;4.63;4.33;;;18.80;71.80;;;;;;10436969;28;20229;-77
2021/06/03 04:07:12;;;;;;;4.33;4.03;;;18.80;72.20;;;;;;10456712;28;20232;-78
2021/06/03 04:12:16;;;;;;;5.70;4.63;;;18.80;72.50;;;;;;10452538;22;20229;-80
2021/06/03 04:17:19;;;;;;;5.90;4.10;;;18.90;73.40;;;;;;10455314;28;20209;-81
2021/06/03 04:22:23;;;;;;;5.53;4.93;;;18.90;72.80;;;;;;10462285;28;20271;-81
2021/06/03 04:27:26;;;;;;;4.90;4.60;;;18.90;73.20;;;;;;10466692;28;20573;-81
2021/06/03 04:32:28;;;;;;;4.70;4.40;;;18.90;73.40;;;;;;10459443;28;20217;-80
2021/06/03 04:37:30;;;;;;;5.40;5.00;;;19.00;74.10;;;;;;10461675;28;20201;-80
2021/06/03 04:42:33;;;;;;;5.07;4.67;;;19.10;74.60;;;;;;10460106;28;20245;-80
2021/06/03 04:47:35;;;;;;;5.27;4.87;;;19.10;75.40;;;;;;10457222;28;20262;-80
2021/06/03 04:52:37;;;;;;;4.60;4.30;;;19.20;74.70;;;;;;10456856;28;20220;-80
2021/06/03 04:57:42;;;;;;;4.83;4.50;;;19.30;75.10;;;;;;10462601;28;20201;-81
2021/06/03 05:02:44;;;;;;;5.30;4.80;;;19.40;74.90;;;;;;10455734;28;20229;-81
2021/06/03 05:07:47;;;;;;;5.70;5.00;;;19.50;74.60;;;;;;10455250;28;20209;-81
2021/06/03 05:12:50;;;;;;;6.00;5.50;;;19.60;74.40;;;;;;10453097;28;20307;-82
2021/06/03 05:17:54;;;;;;;5.33;4.93;;;19.70;74.40;;;;;;10462031;28;20238;-80
2021/06/03 05:22:57;;;;;;;5.17;4.83;;;19.60;74.20;;;;;;10452281;28;20283;-81
2021/06/03 05:28:01;;;;;;;5.00;4.63;;;19.60;74.50;;;;;;10425536;28;20208;-79
2021/06/03 05:33:02;;;;;;;7.30;5.40;;;19.60;75.70;;;;;;10456046;28;20241;-80
2021/06/03 05:38:04;;;;;;;5.67;5.27;;;19.60;75.90;;;;;;10441021;28;20198;-80
2021/06/03 05:43:07;;;;;;;7.93;5.10;;;19.70;75.20;;;;;;10458080;28;20224;-80
2021/06/03 05:48:09;;;;;;;6.17;5.77;;;19.90;75.50;;;;;;10455656;28;20860;-84
2021/06/03 05:53:11;;;;;;;5.80;5.50;;;20.30;75.60;;;;;;10453344;28;20636;-80
2021/06/03 05:58:14;;;;;;;5.60;5.20;;;20.70;74.00;;;;;;10460331;28;20201;-81
2021/06/03 06:03:18;;;;;;;5.63;5.33;;;21.00;73.70;;;;;;10452429;28;20225;-82
2021/06/03 06:08:23;;;;;;;5.33;4.90;;;21.20;73.20;;;;;;10446546;28;20226;-80
2021/06/03 06:13:25;;;;;;;5.10;4.80;;;21.30;73.10;;;;;;10453013;28;20258;-80
2021/06/03 06:18:27;;;;;;;6.00;5.50;;;21.40;73.90;;;;;;10461953;28;20284;-79
2021/06/03 06:23:29;;;;;;;5.97;5.33;;;21.40;75.20;;;;;;10456598;28;20598;-80
2021/06/03 06:28:33;;;;;;;5.10;4.80;;;21.40;76.30;;;;;;10452254;28;20676;-80
2021/06/03 06:33:34;;;;;;;5.60;5.10;;;21.40;76.90;;;;;;10454992;28;20304;-81
2021/06/03 06:38:37;;;;;;;5.03;4.60;;;21.30;77.30;;;;;;10453674;28;20231;-80
2021/06/03 06:43:40;;;;;;;6.27;5.33;;;21.30;76.40;;;;;;10447055;28;20751;-81
2021/06/03 06:48:42;;;;;;;4.80;4.50;;;21.40;77.50;;;;;;10447118;28;20291;-81
2021/06/03 06:53:43;;;;;;;4.70;4.40;;;21.40;77.40;;;;;;10466070;28;20279;-79
2021/06/03 06:58:46;;;;;;;5.50;5.10;;;21.50;78.10;;;;;;10466046;28;20573;-81
2021/06/03 07:03:48;;;;;;;4.80;4.50;;;21.50;79.20;;;;;;10466889;28;20225;-79
2021/06/03 07:08:49;;;;;;;5.10;4.73;;;21.50;79.90;;;;;;10475930;28;20260;-81
2021/06/03 07:13:52;;;;;;;4.43;4.20;;;21.50;79.80;;;;;;10477455;28;20229;-81
2021/06/03 07:18:54;;;;;;;4.87;4.47;;;21.50;80.10;;;;;;10460665;28;20280;-79
2021/06/03 07:23:56;;;;;;;5.80;5.30;;;21.60;80.10;;;;;;10443156;28;20312;-79
2021/06/03 07:29:03;;;;;;;8.40;5.73;;;21.70;79.20;;;;;;10460298;28;20884;-79
2021/06/03 07:34:06;;;;;;;6.87;6.37;;;21.90;79.00;;;;;;10460456;28;20213;-79
2021/06/03 07:39:08;;;;;;;6.57;5.97;;;22.30;77.70;;;;;;10464104;28;20231;-78
2021/06/03 07:44:11;;;;;;;6.17;5.67;;;22.60;75.90;;;;;;10452013;28;20224;-80
2021/06/03 07:49:13;;;;;;;5.70;5.20;;;23.00;74.50;;;;;;10457604;28;20752;-79
2021/06/03 07:54:15;;;;;;;6.40;5.80;;;23.40;74.20;;;;;;10456875;28;20217;-81
2021/06/03 07:59:18;;;;;;;5.53;4.80;;;23.50;73.70;;;;;;10423122;28;20292;-78
2021/06/03 08:04:20;;;;;;;5.73;4.80;;;23.50;73.70;;;;;;10426541;28;20224;-80
2021/06/03 08:09:21;;;;;;;5.77;5.30;;;23.60;73.80;;;;;;10465589;28;20220;-79
2021/06/03 08:14:24;;;;;;;3.93;3.73;;;24.00;71.80;;;;;;10457168;28;20328;-79
2021/06/03 08:19:26;;;;;;;4.67;3.67;;;24.50;71.00;;;;;;10450959;28;20270;-80
2021/06/03 08:24:28;;;;;;;3.87;3.57;;;25.20;68.60;;;;;;10453286;28;20248;-82
2021/06/03 08:29:31;;;;;;;4.00;3.70;;;25.80;66.20;;;;;;10457301;28;20224;-80
2021/06/03 08:34:32;;;;;;;3.53;3.33;;;26.40;64.50;;;;;;10472469;28;20225;-78
2021/06/03 08:39:34;;;;;;;4.00;3.70;;;26.80;63.10;;;;;;10458977;28;20243;-79
2021/06/03 08:44:37;;;;;;;4.07;3.20;;;27.20;59.90;;;;;;10452756;28;20317;-81
2021/06/03 08:49:39;;;;;;;4.70;3.37;;;27.70;60.30;;;;;;10453421;28;20196;-78
2021/06/03 08:54:41;;;;;;;3.60;3.40;;;28.50;58.70;;;;;;10462317;28;20267;-78
2021/06/03 08:59:44;;;;;;;4.00;3.70;;;29.20;57.00;;;;;;10460709;28;20251;-78
2021/06/03 09:04:45;;;;;;;4.00;3.63;;;29.50;56.90;;;;;;10459620;28;20235;-79
2021/06/03 09:09:47;;;;;;;3.80;3.50;;;29.80;56.90;;;;;;10453681;28;20284;-79
2021/06/03 09:15:17;;;;;;;3.70;3.50;;;30.20;57.00;;;;;;10450913;28;20292;-79
2021/06/03 09:20:25;;;;;;;3.40;3.20;;;30.60;55.40;;;;;;10449321;28;20295;-78
2021/06/03 09:25:35;;;;;;;4.30;3.97;;;30.80;53.10;;;;;;10451618;28;20253;-78
2021/06/03 09:30:55;;;;;;;3.30;3.10;;;31.20;52.80;;;;;;10449626;28;20202;-78
2021/06/03 09:35:57;;;;;;;3.90;3.50;;;31.50;51.50;;;;;;10464409;28;20249;-79
2021/06/03 09:40:58;;;;;;;3.20;3.10;;;32.20;50.90;;;;;;10457512;28;20576;-78
2021/06/03 09:46:03;;;;;;;4.60;4.20;;;33.00;49.30;;;;;;10452225;28;20229;-79
2021/06/03 09:51:20;;;;;;;3.83;3.40;;;33.60;48.80;;;;;;10451776;28;20197;-80
2021/06/03 09:56:24;;;;;;;5.50;2.67;;;34.70;47.80;;;;;;10448770;28;20295;-77
2021/06/03 10:01:45;;;;;;;3.10;2.90;;;36.30;44.40;;;;;;10456258;28;20350;-79
2021/06/03 10:06:59;;;;;;;3.83;3.50;;;37.70;43.10;;;;;;10454586;28;20200;-79
2021/06/03 10:12:01;;;;;;;3.13;2.92;;;38.20;42.20;;;;;;10453628;28;20631;-79
2021/06/03 10:17:18;;;;;;;3.20;3.00;;;39.10;39.50;;;;;;10464239;28;20283;-79
2021/06/03 10:22:22;;;;;;;2.90;2.80;;;39.20;39.20;;;;;;10459826;28;20225;-79
2021/06/03 10:27:25;;;;;;;2.80;2.70;;;37.40;39.10;;;;;;10450094;28;20239;-78
2021/06/03 10:32:30;;;;;;;2.70;2.60;;;34.90;41.30;;;;;;10461140;28;20235;-78
2021/06/03 10:37:32;;;;;;;2.90;2.70;;;33.00;43.60;;;;;;10467285;28;20283;-79
2021/06/03 10:42:34;;;;;;;2.70;2.60;;;31.50;45.30;;;;;;10454825;28;20228;-78
2021/06/03 10:47:37;;;;;;;2.57;2.47;;;30.50;46.10;;;;;;10457464;28;20202;-78
2021/06/03 10:52:39;;;;;;;4.27;2.93;;;29.70;48.30;;;;;;10456643;28;20240;-78
2021/06/03 10:57:49;;;;;;;2.77;2.53;;;29.20;49.60;;;;;;10455024;28;20730;-77
2021/06/03 11:02:54;;;;;;;2.50;2.40;;;28.70;49.20;;;;;;10458518;28;20685;-78
2021/06/03 11:07:55;;;;;;;2.93;2.73;;;28.30;49.00;;;;;;10457888;28;20197;-78
2021/06/03 11:13:12;;;;;;;3.10;2.77;;;27.90;50.60;;;;;;10458009;28;20225;-78
2021/06/03 11:18:15;;;;;;;3.17;3.07;;;27.50;52.10;;;;;;10455963;28;20763;-77
2021/06/03 11:23:56;;;;;;;2.90;2.70;;;27.20;52.60;;;;;;10464029;28;20655;-77
2021/06/03 11:29:11;;;;;;;3.23;3.03;;;27.20;52.80;;;;;;10467139;28;20284;-81
2021/06/03 11:34:17;;;;;;;3.00;2.80;;;27.30;52.80;;;;;;10463108;28;20760;-77
2021/06/03 11:39:38;;;;;;;3.40;3.20;;;27.30;53.90;;;;;;10460825;28;20215;-78
2021/06/03 11:45:23;;;;;;;3.43;3.23;;;27.20;56.30;;;;;;10459252;28;20225;-78
2021/06/03 11:51:03;;;;;;;3.63;3.43;;;27.10;56.50;;;;;;10468132;28;20275;-78
2021/06/03 11:56:19;;;;;;;3.00;2.80;;;27.10;56.10;;;;;;10448299;28;20310;-76
2021/06/03 12:01:33;;;;;;;3.43;3.20;;;27.20;56.70;;;;;;10466249;28;20228;-78
2021/06/03 12:06:39;;;;;;;3.97;3.53;;;27.30;56.20;;;;;;10460616;28;20201;-77
2021/06/03 12:11:44;;;;;;;3.03;2.83;;;27.30;56.60;;;;;;10432155;28;20248;-78
2021/06/03 12:16:48;;;;;;;3.43;3.23;;;27.10;57.50;;;;;;10459852;28;20280;-77
2021/06/03 12:21:54;;;;;;;3.30;3.10;;;26.80;58.20;;;;;;10463945;28;20701;-80
2021/06/03 12:26:56;;;;;;;3.10;2.97;;;26.50;58.70;;;;;;10463668;28;20216;-78
2021/06/03 12:31:58;;;;;;;3.43;3.23;;;26.30;60.30;;;;;;10463359;28;20220;-78
2021/06/03 12:37:01;;;;;;;19.50;8.00;;;26.10;61.80;;;;;;10462278;28;20615;-81
2021/06/03 12:42:02;;;;;;;13.50;12.10;;;25.70;68.70;;;;;;10468636;28;20229;-80
2021/06/03 12:47:07;;;;;;;18.60;12.30;;;24.50;91.80;;;;;;10489918;28;20204;-79
2021/06/03 12:52:11;;;;;;;10.80;9.90;;;22.70;98.10;;;;;;10459962;28;20737;-80
2021/06/03 12:57:15;;;;;;;12.10;11.20;;;21.60;99.90;;;;;;10444544;28;20583;-80
2021/06/03 13:02:17;;;;;;;12.13;11.33;;;20.90;99.90;;;;;;10444366;28;20260;-80
2021/06/03 13:07:28;;;;;;;15.90;14.90;;;20.70;99.90;;;;;;10460712;28;20208;-79
2021/06/03 13:12:29;;;;;;;15.20;14.30;;;20.70;99.90;;;;;;10441283;28;20233;-81
2021/06/03 13:17:35;;;;;;;14.50;13.70;;;20.90;99.90;;;;;;10458843;28;20251;-80
2021/06/03 13:22:38;;;;;;;15.63;14.37;;;21.00;99.90;;;;;;10459288;28;20303;-81
2021/06/03 13:27:44;;;;;;;13.57;12.77;;;21.10;99.90;;;;;;10461310;28;20216;-80
2021/06/03 13:32:48;;;;;;;15.17;14.03;;;21.10;99.90;;;;;;10472198;28;20741;-81
2021/06/03 13:37:52;;;;;;;13.67;12.60;;;21.20;99.90;;;;;;10461852;28;20232;-80
2021/06/03 13:42:57;;;;;;;12.40;11.60;;;21.40;99.90;;;;;;10460454;28;20212;-79
2021/06/03 13:48:02;;;;;;;12.90;12.20;;;21.60;99.90;;;;;;10460535;28;20630;-81
2021/06/03 13:53:08;;;;;;;12.70;11.90;;;21.70;99.90;;;;;;10460992;28;20217;-81
2021/06/03 13:58:12;;;;;;;12.07;11.37;;;22.00;99.90;;;;;;10460881;28;20557;-81
2021/06/03 14:03:16;;;;;;;11.10;10.50;;;22.20;99.90;;;;;;10459973;28;20597;-81
2021/06/03 14:08:20;;;;;;;9.97;9.20;;;22.50;99.90;;;;;;10459575;28;20248;-81
2021/06/03 14:13:22;;;;;;;10.13;9.63;;;22.60;99.90;;;;;;10459298;28;20234;-81
2021/06/03 14:18:25;;;;;;;9.20;8.70;;;22.80;99.90;;;;;;10459957;28;20588;-80
2021/06/03 14:23:37;;;;;;;9.70;9.10;;;22.90;99.90;;;;;;10459929;28;20227;-80
2021/06/03 14:28:39;;;;;;;9.90;9.00;;;23.10;99.90;;;;;;10476322;28;20208;-81
2021/06/03 14:33:47;;;;;;;9.80;9.17;;;23.30;99.90;;;;;;10442817;28;20307;-81
2021/06/03 14:38:50;;;;;;;8.83;8.37;;;23.50;99.90;;;;;;10460410;28;20221;-81
2021/06/03 14:43:52;;;;;;;7.17;6.87;;;23.60;99.90;;;;;;10459204;28;20225;-80
2021/06/03 14:48:53;;;;;;;7.67;7.27;;;23.70;99.90;;;;;;10459082;28;20225;-81
2021/06/03 14:53:56;;;;;;;5.70;5.30;;;23.70;99.90;;;;;;10460976;28;20317;-80
2021/06/03 14:58:58;;;;;;;5.37;5.07;;;23.70;99.90;;;;;;10467395;28;20631;-80
2021/06/03 15:04:00;;;;;;;4.53;4.30;;;23.60;99.90;;;;;;10466551;28;20765;-78
2021/06/03 15:09:06;;;;;;;5.60;5.27;;;23.50;99.90;;;;;;10465931;28;20189;-80
2021/06/03 15:14:07;;;;;;;4.40;4.00;;;23.30;99.90;;;;;;10468441;28;20217;-80
2021/06/03 15:19:09;;;;;;;4.97;4.60;;;23.20;99.90;;;;;;10450294;28;20205;-80
2021/06/03 15:24:12;;;;;;;4.40;4.20;;;23.10;99.90;;;;;;10466778;28;20221;-80
2021/06/03 15:29:13;;;;;;;4.13;3.90;;;23.00;99.90;;;;;;10485420;28;20225;-79
2021/06/03 15:34:15;;;;;;;4.17;3.97;;;23.00;99.90;;;;;;10477687;28;20307;-79
2021/06/03 15:39:18;;;;;;;4.30;4.10;;;22.90;99.90;;;;;;10462602;28;20204;-79
2021/06/03 15:44:20;;;;;;;5.03;4.73;;;22.90;99.90;;;;;;10462173;28;20233;-80
2021/06/03 15:49:25;;;;;;;5.27;4.97;;;22.90;99.90;;;;;;10462768;28;20621;-80
2021/06/03 15:54:28;;;;;;;5.27;4.97;;;23.00;99.90;;;;;;10462610;28;20217;-81
2021/06/03 15:59:29;;;;;;;5.27;4.97;;;22.90;99.90;;;;;;10462167;28;20209;-80
2021/06/03 16:04:31;;;;;;;4.87;4.50;;;22.90;99.90;;;;;;10462452;28;20638;-81
2021/06/03 16:09:35;;;;;;;4.87;4.43;;;22.90;99.90;;;;;;10460531;28;20622;-80
2021/06/03 16:14:36;;;;;;;4.20;3.70;;;22.90;99.90;;;;;;10499774;22;20225;-79
2021/06/03 16:19:38;;;;;;;4.63;4.20;;;22.80;99.90;;;;;;10507302;28;20250;-78
2021/06/03 16:24:41;;;;;;;5.13;4.20;;;22.70;99.90;;;;;;10505138;28;20220;-80
2021/06/03 16:29:43;;;;;;;5.00;4.60;;;22.60;99.90;;;;;;10506375;28;20216;-79
2021/06/03 16:34:44;;;;;;;4.50;4.10;;;22.50;99.90;;;;;;10497991;28;20803;-78
2021/06/03 16:39:47;;;;;;;5.23;3.73;;;22.30;99.90;;;;;;10487798;28;20207;-80
2021/06/03 16:44:49;;;;;;;4.53;3.90;;;22.20;99.90;;;;;;10506216;28;20220;-79
2021/06/03 16:49:51;;;;;;;3.60;3.40;;;22.20;99.90;;;;;;10497312;28;20213;-79
2021/06/03 16:54:54;;;;;;;4.17;3.87;;;22.10;99.90;;;;;;10505787;28;20239;-80
2021/06/03 16:59:55;;;;;;;3.20;2.97;;;21.90;99.90;;;;;;10500254;28;20204;-78
2021/06/03 17:04:57;;;;;;;3.47;3.27;;;21.80;99.90;;;;;;10496684;28;20239;-80
2021/06/03 17:10:00;;;;;;;3.60;3.40;;;21.70;99.90;;;;;;10498263;28;20687;-79
2021/06/03 17:15:02;;;;;;;4.13;3.80;;;21.60;99.90;;;;;;10499894;28;20224;-79
2021/06/03 17:20:08;;;;;;;4.60;4.30;;;21.50;99.90;;;;;;10502520;28;20208;-78
2021/06/03 17:25:12;;;;;;;4.17;3.87;;;21.40;99.90;;;;;;10501055;28;20328;-80
2021/06/03 17:30:17;;;;;;;3.70;3.40;;;21.30;99.90;;;;;;10507767;28;20224;-78
2021/06/03 17:35:21;;;;;;;6.53;4.47;;;21.30;99.90;;;;;;10496534;28;20700;-79
2021/06/03 17:40:25;;;;;;;4.47;3.90;;;21.20;99.90;;;;;;10500166;28;20208;-78
2021/06/03 17:45:28;;;;;;;4.30;4.00;;;21.30;99.90;;;;;;10496196;28;20216;-79
2021/06/03 17:50:41;;;;;;;3.47;3.17;;;21.20;99.90;;;;;;10507999;28;20221;-78
2021/06/03 17:55:46;;;;;;;4.00;3.80;;;21.10;99.90;;;;;;10485234;28;20220;-79
2021/06/03 18:00:50;;;;;;;3.83;3.43;;;21.10;99.90;;;;;;10471475;28;20224;-80
2021/06/03 18:05:53;;;;;;;4.00;3.70;;;21.10;99.90;;;;;;10499157;28;20259;-80
2021/06/03 18:10:56;;;;;;;3.60;3.30;;;21.10;99.90;;;;;;10498502;28;20188;-78
2021/06/03 18:15:58;;;;;;;3.80;3.50;;;21.00;99.90;;;;;;10497933;28;20227;-80
2021/06/03 18:21:00;;;;;;;3.67;3.47;;;21.00;99.90;;;;;;10498820;28;20987;-79
2021/06/03 18:26:04;;;;;;;3.83;3.47;;;21.00;99.90;;;;;;10502059;28;20220;-80
2021/06/03 18:31:07;;;;;;;8.40;7.77;;;21.00;99.90;;;;;;10507942;28;20618;-80
2021/06/03 18:36:09;;;;;;;3.87;3.63;;;20.90;99.90;;;;;;10486575;28;20228;-80
2021/06/03 18:41:13;;;;;;;4.23;3.90;;;20.90;99.90;;;;;;10509213;28;20208;-79
2021/06/03 18:46:16;;;;;;;7.83;3.40;;;20.80;99.90;;;;;;10508173;28;20315;-80
2021/06/03 18:51:19;;;;;;;3.80;3.60;;;20.80;99.90;;;;;;10506542;28;20330;-80
2021/06/03 18:56:23;;;;;;;4.73;3.83;;;20.90;99.90;;;;;;10506282;28;20784;-79
2021/06/03 19:01:24;;;;;;;4.60;4.00;;;20.90;99.90;;;;;;10497759;28;20714;-78
2021/06/03 19:06:26;;;;;;;6.30;3.80;;;20.80;99.90;;;;;;10500477;28;20220;-80
2021/06/03 19:11:29;;;;;;;3.83;3.20;;;20.80;99.90;;;;;;10507672;28;20220;-79
2021/06/03 19:16:31;;;;;;;5.67;5.17;;;20.70;99.90;;;;;;10499482;28;20236;-78
2021/06/03 19:21:33;;;;;;;3.23;3.03;;;20.60;99.90;;;;;;10485730;28;20270;-78
2021/06/03 19:26:37;;;;;;;7.80;3.90;;;20.50;99.90;;;;;;10497632;28;20307;-80
2021/06/03 19:31:40;;;;;;;3.90;3.40;;;20.40;99.90;;;;;;10499585;28;20629;-80
2021/06/03 19:36:44;;;;;;;4.07;3.77;;;20.40;99.90;;;;;;10494815;28;20228;-80
2021/06/03 19:41:47;;;;;;;3.60;3.40;;;20.30;99.90;;;;;;10508735;28;20248;-79
2021/06/03 19:46:49;;;;;;;4.10;3.70;;;20.30;99.90;;;;;;10499903;28;20257;-80
2021/06/03 19:51:50;;;;;;;3.77;3.50;;;20.30;99.90;;;;;;10505411;28;20665;-80
2021/06/03 19:56:53;;;;;;;4.63;3.50;;;20.30;99.90;;;;;;10503032;28;20201;-79
2021/06/03 20:01:55;;;;;;;6.03;3.30;;;20.30;99.90;;;;;;10504057;28;20251;-79
2021/06/03 20:06:57;;;;;;;3.90;3.57;;;20.40;99.90;;;;;;10496003;28;20239;-78
2021/06/03 20:12:02;;;;;;;3.77;3.50;;;20.30;99.90;;;;;;10498249;28;20204;-80
2021/06/03 20:17:04;;;;;;;3.77;3.40;;;20.20;99.90;;;;;;10492020;28;20193;-79
2021/06/03 20:22:06;;;;;;;3.20;2.90;;;20.30;99.90;;;;;;10503769;28;20370;-80
2021/06/03 20:27:09;;;;;;;7.53;3.30;;;20.20;99.90;;;;;;10504472;28;20587;-79
2021/06/03 20:32:11;;;;;;;4.50;3.47;;;20.10;99.90;;;;;;10477376;28;20648;-78
2021/06/03 20:37:13;;;;;;;3.10;2.90;;;20.00;99.90;;;;;;10471573;28;20730;-79
2021/06/03 20:42:16;;;;;;;4.10;3.13;;;20.00;99.90;;;;;;10484721;28;20250;-79
2021/06/03 20:47:18;;;;;;;3.50;3.30;;;20.00;99.90;;;;;;10491554;28;20207;-80
2021/06/03 20:52:19;;;;;;;3.20;3.00;;;20.00;99.90;;;;;;10500119;28;20248;-78
2021/06/03 20:57:23;;;;;;;5.53;3.50;;;20.00;99.90;;;;;;10497602;28;20223;-80
2021/06/03 21:02:24;;;;;;;3.00;2.80;;;20.00;99.90;;;;;;10503949;28;20233;-79
2021/06/03 21:07:26;;;;;;;3.40;3.10;;;19.90;99.90;;;;;;10491981;28;20636;-77
2021/06/03 21:12:29;;;;;;;3.63;2.87;;;19.90;99.90;;;;;;10481562;28;20229;-79
2021/06/03 21:17:32;;;;;;;4.73;3.03;;;19.90;99.90;;;;;;10491300;28;20336;-79
2021/06/03 21:22:33;;;;;;;8.87;3.37;;;19.80;99.90;;;;;;10490634;28;20285;-79
2021/06/03 21:27:46;;;;;;;3.50;3.20;;;19.80;99.90;;;;;;10489283;28;20193;-79
2021/06/03 21:32:49;;;;;;;3.30;3.10;;;19.70;99.90;;;;;;10479115;28;20228;-79
2021/06/03 21:37:51;;;;;;;4.20;3.13;;;19.70;99.90;;;;;;10497296;28;20627;-79
2021/06/03 21:42:54;;;;;;;4.70;3.57;;;19.70;99.90;;;;;;10502213;28;20239;-79
2021/06/03 21:47:57;;;;;;;5.83;3.20;;;19.60;99.90;;;;;;10492485;28;20247;-79
2021/06/03 21:53:01;;;;;;;6.00;3.63;;;19.60;99.90;;;;;;10492374;28;20220;-79
2021/06/03 21:58:04;;;;;;;3.97;3.57;;;19.50;99.90;;;;;;10485028;28;20207;-79
2021/06/03 22:03:09;;;;;;;7.80;3.77;;;19.60;99.90;;;;;;10474486;28;20231;-79
2021/06/03 22:08:13;;;;;;;6.30;3.90;;;19.60;99.90;;;;;;10464737;28;20197;-79
2021/06/03 22:13:19;;;;;;;3.87;3.47;;;19.50;99.90;;;;;;10479713;28;20220;-79
2021/06/03 22:18:23;;;;;;;3.90;3.60;;;19.50;99.90;;;;;;10498054;28;20268;-79
2021/06/03 22:23:28;;;;;;;5.00;4.00;;;19.50;99.90;;;;;;10489359;28;20232;-79
2021/06/03 22:28:35;;;;;;;3.67;3.47;;;19.40;99.90;;;;;;10497793;28;20222;-79
2021/06/03 22:33:39;;;;;;;3.50;3.30;;;19.30;99.90;;;;;;10500674;28;20219;-79
2021/06/03 22:38:46;;;;;;;5.27;4.17;;;19.30;99.90;;;;;;10485081;28;20193;-80
2021/06/03 22:43:50;;;;;;;5.87;3.60;;;19.20;99.90;;;;;;10499006;28;20220;-79
2021/06/03 22:48:53;;;;;;;5.03;3.80;;;19.20;99.90;;;;;;10497031;28;20640;-79
2021/06/03 22:53:56;;;;;;;4.20;3.80;;;19.20;99.90;;;;;;10489972;28;20220;-79
2021/06/03 22:59:01;;;;;;;3.70;3.40;;;19.10;99.90;;;;;;10477387;28;20197;-79
2021/06/03 23:04:07;;;;;;;11.60;4.20;;;19.10;99.90;;;;;;10470958;28;20232;-77
2021/06/03 23:09:10;;;;;;;4.00;3.70;;;19.10;99.90;;;;;;10465354;28;20221;-80
2021/06/03 23:14:15;;;;;;;3.73;3.43;;;19.10;99.90;;;;;;10465389;28;20754;-77
2021/06/03 23:19:18;;;;;;;3.50;3.23;;;19.00;99.90;;;;;;10470982;28;20347;-79
2021/06/03 23:24:20;;;;;;;3.80;3.60;;;19.00;99.90;;;;;;10470556;28;20225;-79
2021/06/03 23:29:23;;;;;;;4.07;3.67;;;19.00;99.90;;;;;;10467112;28;20201;-79
2021/06/03 23:34:24;;;;;;;3.60;3.30;;;18.90;99.90;;;;;;10455206;28;20685;-78
2021/06/03 23:39:26;;;;;;;4.53;4.13;;;18.80;99.90;;;;;;10476333;28;20235;-79
2021/06/03 23:44:29;;;;;;;3.90;3.60;;;18.80;99.90;;;;;;10493233;28;20232;-79
2021/06/03 23:49:31;;;;;;;3.60;3.30;;;18.70;99.90;;;;;;10495814;28;20201;-78
2021/06/03 23:54:32;;;;;;;4.30;3.90;;;18.80;99.90;;;;;;10504686;28;20216;-79
2021/06/03 23:59:35;;;;;;;7.87;4.70;;;18.70;99.90;;;;;;10487538;28;20200;-79
